Strona główna
METAR-TAF:

METAR-TAF

Lotnisko :

Port lotniczy Savannakhet

Savannakhét, Laos

Szerokość geograficzna: 16-33-24N, Długość geograficzna: 104-45-34E, wysokość: 155 m

Aktualna obserwacja pogody

Raport powstał 9 godziny i 36 minut temu, godzina 12:00 UTC
Wiatr 6 kt od północny wschód
Temperatura 32°C
Wilgotność 43%
Ciśnienie 1010 hPa
Widzialność: 6000 m
Rozproszone chmury na wysokości 4000 ft
Rozproszone chmury na wysokości 10000 ft

METAR: VLSK 101200Z 04006KT 6000 SCT040 SCT100 32/18 Q1010 NOSIG

czas: 04:36 (21:36 UTC)

Prognoza

Raport powstał 10 godziny i 36 minut temu, godzina 11:00 UTC
Prognoza ważna od 10 godzina 12 UTC do 11 godzina 12 UTC
Wiatr 6 kt od wschód
Widzialność: 5000 m
Rozproszone chmury na wysokości 2000 ft
Rozproszone chmury na wysokości 10000 ft
zmętnienie
Przejściowo
od 10 godzina 14 UTC do 10 godzina 20 UTC
Widzialność: 3000 m
Mało chmury na wysokości 4000 ft
Rozproszone chmury na wysokości 10000 ft
zamglenie

TAF: VLSK 101100Z 1012/1112 09006KT 5000 HZ SCT020 SCT100 TEMPO 1014/1020 3000 BR FEW040 SCT100

Obserwacja i prognoza pogody dla ponad 4000 lotnisk (raport METAR i TAF).

Dostępne stacje oznaczono żółtymi i czerwonymi punktami na mapie.

Najedź kursorem aby zobaczyć nazwę stacji.

Kliknij aby zobaczyć obserwacje i prognozy pogody.

Aby zmienić mapę: kliknij na zielony przycisk z czarnym krzyżykiem, aby powiększyć; na zielony przycisk z myślnikiem, aby pomniejszyć; na zielone strzałki, aby przejść do map sąsiednich.


METAR-TAF: